createdAt,value
2018-12-14T00:01:18.772Z,25.63
2018-12-14T00:03:47.374Z,26.67
2018-12-14T00:06:16.171Z,26.70
2018-12-14T00:08:44.829Z,24.33
2018-12-14T00:11:13.422Z,22.40
2018-12-14T00:13:42.070Z,25.17
2018-12-14T00:16:10.723Z,28.07
2018-12-14T00:18:39.342Z,25.77
2018-12-14T00:21:07.997Z,26.40
2018-12-14T00:23:36.647Z,32.20
2018-12-14T00:26:05.281Z,25.30
2018-12-14T00:28:33.918Z,26.37
2018-12-14T00:31:02.747Z,25.63
2018-12-14T00:33:31.422Z,21.87
2018-12-14T00:36:00.591Z,30.77
2018-12-14T00:38:29.466Z,24.70
2018-12-14T00:40:58.073Z,26.23
2018-12-14T00:43:26.746Z,26.67
2018-12-14T00:45:55.411Z,26.47
2018-12-14T00:48:24.026Z,26.20
2018-12-14T00:50:52.657Z,26.20
2018-12-14T00:53:21.401Z,28.60
2018-12-14T00:55:50.008Z,24.90
2018-12-14T00:58:18.629Z,26.73
2018-12-14T01:00:47.258Z,27.83
2018-12-14T01:03:15.892Z,29.47
2018-12-14T01:05:44.545Z,27.43
2018-12-14T01:08:13.166Z,25.80
2018-12-14T01:10:41.987Z,30.43
2018-12-14T01:13:10.604Z,27.00
2018-12-14T01:15:39.216Z,28.17
2018-12-14T01:18:07.840Z,29.27
2018-12-14T01:20:36.456Z,30.33
2018-12-14T01:23:05.045Z,30.03
2018-12-14T01:25:33.656Z,29.70
2018-12-14T01:28:02.397Z,28.90
2018-12-14T01:30:31.126Z,27.97
2018-12-14T01:32:59.742Z,32.30
2018-12-14T01:35:28.345Z,31.77
2018-12-14T01:37:56.950Z,30.03
2018-12-14T01:40:25.605Z,32.20
2018-12-14T01:42:54.238Z,29.40
2018-12-14T01:45:22.889Z,26.20
2018-12-14T01:47:51.525Z,29.07
2018-12-14T01:50:20.132Z,29.00
2018-12-14T01:52:48.936Z,31.83
2018-12-14T01:55:17.786Z,26.73
2018-12-14T01:57:46.596Z,30.73
2018-12-14T02:00:15.467Z,27.40
2018-12-14T02:02:44.096Z,28.40
2018-12-14T02:05:12.705Z,27.37
2018-12-14T02:07:41.313Z,32.90
2018-12-14T02:10:09.943Z,31.20
2018-12-14T02:12:38.626Z,32.77
2018-12-14T02:15:07.346Z,31.10
2018-12-14T02:17:35.950Z,36.17
2018-12-14T02:20:04.748Z,37.20
2018-12-14T02:22:33.389Z,34.50
2018-12-14T02:25:02.045Z,33.10
2018-12-14T02:27:30.641Z,30.63
2018-12-14T02:30:01.308Z,35.93
2018-12-14T02:32:29.909Z,36.37
2018-12-14T02:34:58.530Z,35.57
2018-12-14T02:37:27.153Z,33.50
2018-12-14T02:39:55.792Z,31.20
2018-12-14T02:42:24.587Z,34.03
2018-12-14T02:44:53.206Z,35.00
2018-12-14T02:47:21.831Z,33.13
2018-12-14T02:49:50.438Z,39.77
2018-12-14T02:52:19.027Z,37.10
2018-12-14T02:54:47.683Z,39.30
2018-12-14T02:57:16.349Z,36.70
2018-12-14T02:59:44.952Z,34.90
2018-12-14T03:02:13.558Z,38.70
2018-12-14T03:04:42.187Z,38.23
2018-12-14T03:07:10.950Z,39.10
2018-12-14T03:09:39.586Z,36.60
2018-12-14T03:12:08.188Z,38.63
2018-12-14T03:14:36.979Z,38.33
2018-12-14T03:17:05.891Z,35.50
2018-12-14T03:19:34.522Z,38.20
2018-12-14T03:22:03.769Z,45.30
2018-12-14T03:24:32.383Z,40.30
2018-12-14T03:27:01.058Z,39.50
2018-12-14T03:29:29.731Z,41.33
2018-12-14T03:31:58.504Z,36.37
2018-12-14T03:34:27.088Z,38.07
2018-12-14T03:36:55.670Z,36.33
2018-12-14T03:39:24.300Z,36.83
2018-12-14T03:41:52.907Z,38.60
2018-12-14T03:44:21.952Z,39.37
2018-12-14T03:46:50.751Z,36.90
2018-12-14T03:49:19.348Z,38.00
2018-12-14T03:51:47.972Z,36.97
2018-12-14T03:54:16.706Z,35.23
2018-12-14T03:56:45.306Z,38.83
2018-12-14T03:59:13.963Z,40.20
2018-12-14T04:01:42.711Z,36.00
2018-12-14T04:04:11.359Z,39.83
2018-12-14T04:06:39.962Z,41.40
2018-12-14T04:09:08.635Z,38.43
2018-12-14T04:11:37.230Z,47.17
2018-12-14T04:14:05.881Z,42.03
2018-12-14T04:16:34.524Z,39.23
2018-12-14T04:19:03.187Z,36.87
2018-12-14T04:21:31.797Z,42.30
2018-12-14T04:24:00.493Z,37.90
2018-12-14T04:26:29.219Z,37.63
2018-12-14T04:28:57.864Z,41.80
2018-12-14T04:31:26.497Z,43.47
2018-12-14T04:33:55.118Z,41.70
2018-12-14T04:36:23.765Z,45.40
2018-12-14T04:38:52.387Z,44.20
2018-12-14T04:41:21.123Z,40.20
2018-12-14T04:43:49.738Z,41.57
2018-12-14T04:46:18.392Z,38.80
2018-12-14T04:48:47.022Z,44.43
2018-12-14T04:51:15.873Z,35.67
2018-12-14T04:53:44.515Z,39.23
2018-12-14T04:56:13.504Z,43.50
2018-12-14T04:58:42.308Z,38.67
2018-12-14T05:01:10.945Z,35.20
2018-12-14T05:03:39.713Z,37.30
2018-12-14T05:06:08.303Z,37.23
2018-12-14T05:08:36.899Z,37.77
2018-12-14T05:11:05.540Z,40.00
2018-12-14T05:13:34.188Z,38.00
2018-12-14T05:16:02.790Z,37.07
2018-12-14T05:18:31.419Z,36.90
2018-12-14T05:21:00.034Z,41.07
2018-12-14T05:23:28.639Z,35.97
2018-12-14T05:25:57.284Z,36.90
2018-12-14T05:28:25.860Z,39.80
2018-12-14T05:30:54.498Z,40.20
2018-12-14T05:33:23.123Z,39.20
2018-12-14T05:35:51.715Z,43.77
2018-12-14T05:38:20.318Z,42.10
2018-12-14T05:40:48.947Z,39.33
2018-12-14T05:43:17.581Z,35.87
2018-12-14T05:45:46.212Z,37.10
2018-12-14T05:48:14.801Z,35.87
2018-12-14T05:50:43.422Z,36.70
2018-12-14T05:53:12.020Z,39.97
2018-12-14T05:55:40.662Z,36.87
2018-12-14T05:58:09.295Z,34.17
2018-12-14T06:00:37.945Z,37.43
2018-12-14T06:03:06.532Z,41.43
2018-12-14T06:05:35.131Z,42.53
2018-12-14T06:08:04.694Z,36.53
2018-12-14T06:10:33.319Z,41.20
2018-12-14T06:13:02.068Z,37.63
2018-12-14T06:15:30.795Z,35.40
2018-12-14T06:17:59.491Z,42.67
2018-12-14T06:20:28.109Z,34.27
2018-12-14T06:22:56.722Z,45.10
2018-12-14T06:25:25.398Z,47.67
2018-12-14T06:27:54.102Z,41.60
2018-12-14T06:30:22.740Z,51.07
2018-12-14T06:32:51.398Z,47.40
2018-12-14T06:35:20.120Z,45.33
2018-12-14T06:37:48.746Z,42.80
2018-12-14T06:40:17.398Z,45.90
2018-12-14T06:42:46.135Z,49.00
2018-12-14T06:45:15.110Z,42.60
2018-12-14T06:47:43.727Z,54.20
2018-12-14T06:50:12.363Z,43.43
2018-12-14T06:52:40.946Z,60.37
2018-12-14T06:55:09.313Z,46.13
2018-12-14T06:57:37.931Z,47.60
2018-12-14T07:00:07.008Z,47.60
2018-12-14T07:02:35.707Z,47.60
2018-12-14T07:05:04.450Z,48.07
2018-12-14T07:07:33.558Z,48.00
2018-12-14T07:10:02.645Z,44.73
2018-12-14T07:12:31.336Z,48.13
2018-12-14T07:14:59.949Z,56.73
2018-12-14T07:17:28.582Z,48.03
2018-12-14T07:19:57.301Z,60.47
2018-12-14T07:22:26.048Z,48.43
2018-12-14T07:24:54.827Z,51.47
2018-12-14T07:27:23.551Z,53.53
2018-12-14T07:29:52.166Z,48.40
2018-12-14T07:32:20.811Z,52.43
2018-12-14T07:34:49.452Z,48.67
2018-12-14T07:37:18.263Z,49.07
2018-12-14T07:39:46.923Z,49.10
2018-12-14T07:42:15.496Z,51.10
2018-12-14T07:44:44.263Z,60.03
2018-12-14T07:47:13.232Z,50.80
2018-12-14T07:49:41.864Z,55.83
2018-12-14T07:52:10.488Z,48.93
2018-12-14T07:54:39.147Z,52.87
2018-12-14T07:57:07.771Z,51.37
2018-12-14T07:59:36.438Z,55.60
2018-12-14T08:02:05.444Z,55.77
2018-12-14T08:04:34.418Z,54.17
2018-12-14T08:07:03.169Z,55.57
2018-12-14T08:09:31.781Z,50.50
2018-12-14T08:12:00.440Z,49.43
2018-12-14T08:14:29.111Z,56.93
2018-12-14T08:16:57.734Z,52.60
2018-12-14T08:19:26.313Z,57.67
2018-12-14T08:21:54.983Z,64.90
2018-12-14T08:24:23.642Z,61.40
2018-12-14T08:26:52.392Z,59.00
2018-12-14T08:29:21.052Z,62.70
2018-12-14T08:31:49.682Z,50.40
2018-12-14T08:34:18.304Z,54.77
2018-12-14T08:36:46.935Z,60.87
2018-12-14T08:39:15.522Z,66.87
2018-12-14T08:41:44.149Z,60.83
2018-12-14T08:44:12.774Z,58.90
2018-12-14T08:46:41.373Z,97.77
2018-12-14T08:49:09.935Z,74.33
2018-12-14T08:51:38.545Z,70.53
2018-12-14T08:54:07.210Z,70.03
2018-12-14T08:56:35.903Z,70.17
2018-12-14T08:59:04.518Z,76.50
2018-12-14T09:01:33.143Z,67.13
2018-12-14T09:04:01.751Z,67.50
2018-12-14T09:06:30.491Z,59.27
2018-12-14T09:08:59.103Z,62.57
2018-12-14T09:11:27.665Z,65.60
2018-12-14T09:13:56.294Z,58.33
2018-12-14T09:16:24.924Z,59.23
2018-12-14T09:18:53.556Z,52.20
2018-12-14T09:21:22.185Z,58.50
2018-12-14T09:23:50.792Z,53.73
2018-12-14T09:26:19.420Z,52.57
2018-12-14T09:28:48.046Z,47.30
2018-12-14T09:31:17.822Z,50.73
2018-12-14T09:33:46.486Z,44.40
2018-12-14T09:36:15.155Z,46.10
2018-12-14T09:38:43.755Z,54.67
2018-12-14T09:41:16.189Z,43.00
2018-12-14T09:43:43.041Z,46.40
2018-12-14T09:46:11.658Z,42.07
2018-12-14T09:48:40.381Z,38.03
2018-12-14T09:51:12.380Z,41.77
2018-12-14T09:53:39.719Z,42.33
2018-12-14T09:56:08.350Z,39.47
2018-12-14T09:58:36.944Z,41.50
2018-12-14T10:01:05.551Z,37.77
2018-12-14T10:03:34.420Z,39.53
2018-12-14T10:06:03.077Z,38.10
2018-12-14T10:08:31.717Z,41.43
2018-12-14T10:11:00.482Z,40.80
2018-12-14T10:13:29.330Z,34.10
2018-12-14T10:15:58.314Z,38.50
2018-12-14T10:18:26.919Z,38.67
2018-12-14T10:20:55.530Z,36.90
2018-12-14T10:23:24.116Z,38.20
2018-12-14T10:25:52.726Z,33.90
2018-12-14T10:28:21.354Z,38.23
2018-12-14T10:30:49.970Z,36.43
2018-12-14T10:33:18.575Z,32.00
2018-12-14T10:35:47.252Z,32.40
2018-12-14T10:38:15.911Z,35.47
2018-12-14T10:40:44.565Z,26.63
2018-12-14T10:43:13.206Z,30.73
2018-12-14T10:45:41.939Z,32.67
2018-12-14T10:48:10.559Z,25.80
2018-12-14T10:50:39.911Z,31.17
2018-12-14T10:53:13.114Z,29.20
2018-12-14T10:55:41.954Z,26.20
2018-12-14T10:58:10.697Z,27.77
2018-12-14T11:00:44.768Z,25.60
2018-12-14T11:03:13.411Z,26.10
2018-12-14T11:05:41.993Z,25.70
2018-12-14T11:08:10.611Z,23.53
2018-12-14T11:10:39.249Z,26.70
2018-12-14T11:13:07.872Z,27.63
2018-12-14T11:15:36.605Z,24.07
2018-12-14T11:18:05.236Z,21.73
2018-12-14T11:20:33.854Z,23.97
2018-12-14T11:23:02.455Z,25.43
2018-12-14T11:25:31.124Z,30.10
2018-12-14T11:27:59.704Z,35.97
2018-12-14T11:30:28.326Z,28.00
2018-12-14T11:32:57.021Z,21.53
2018-12-14T11:35:25.614Z,25.73
2018-12-14T11:37:54.185Z,23.87
2018-12-14T11:40:22.830Z,23.70
2018-12-14T11:42:51.454Z,23.57
2018-12-14T11:45:20.090Z,22.67
2018-12-14T11:47:48.751Z,23.20
2018-12-14T11:50:17.385Z,19.20
2018-12-14T11:52:45.993Z,17.97
2018-12-14T11:55:14.768Z,18.37
2018-12-14T11:57:43.392Z,17.93
2018-12-14T12:00:14.253Z,20.67
2018-12-14T12:02:43.507Z,15.47
2018-12-14T12:05:12.335Z,15.83
2018-12-14T12:07:42.179Z,17.47
2018-12-14T12:10:11.598Z,17.70
2018-12-14T12:12:40.486Z,19.07
2018-12-14T12:15:09.698Z,17.30
2018-12-14T12:17:39.569Z,17.83
2018-12-14T12:20:09.151Z,19.50
2018-12-14T12:22:37.781Z,15.70
2018-12-14T12:25:06.572Z,18.00
2018-12-14T12:27:35.314Z,15.27
2018-12-14T12:30:04.267Z,21.83
2018-12-14T12:32:32.885Z,20.20
2018-12-14T12:35:01.535Z,15.97
2018-12-14T12:37:30.316Z,15.77
2018-12-14T12:39:58.930Z,18.27
2018-12-14T12:42:27.681Z,16.47
2018-12-14T12:44:56.302Z,16.20
2018-12-14T12:47:24.952Z,17.40
2018-12-14T12:49:53.565Z,17.40
2018-12-14T12:52:22.165Z,18.47
2018-12-14T12:54:50.809Z,17.90
2018-12-14T12:57:19.376Z,18.93
2018-12-14T12:59:47.974Z,16.60
2018-12-14T13:02:16.589Z,23.40
2018-12-14T13:04:45.492Z,18.40
2018-12-14T13:07:14.286Z,18.13
2018-12-14T13:09:42.907Z,15.17
2018-12-14T13:12:11.510Z,16.53
2018-12-14T13:14:40.664Z,17.50
2018-12-14T13:17:09.283Z,16.40
2018-12-14T13:19:37.907Z,17.40
2018-12-14T13:22:06.630Z,19.57
2018-12-14T13:24:35.252Z,18.80
2018-12-14T13:27:03.883Z,21.50
2018-12-14T13:29:32.487Z,19.33
2018-12-14T13:32:01.328Z,17.70
2018-12-14T13:34:29.920Z,17.60
2018-12-14T13:36:58.501Z,19.07
2018-12-14T13:39:27.152Z,18.40
2018-12-14T13:41:55.756Z,20.03
2018-12-14T13:44:24.385Z,25.17
2018-12-14T13:46:53.163Z,24.50
2018-12-14T13:49:21.762Z,24.90
2018-12-14T13:51:50.336Z,21.00
2018-12-14T13:54:18.913Z,21.47
2018-12-14T13:56:47.514Z,21.50
2018-12-14T13:59:16.097Z,20.20
2018-12-14T14:01:44.702Z,19.80
2018-12-14T14:04:13.318Z,18.80
2018-12-14T14:06:41.897Z,19.03
2018-12-14T14:09:10.557Z,19.40
2018-12-14T14:11:39.171Z,17.77
2018-12-14T14:14:08.061Z,17.10
2018-12-14T14:16:36.674Z,18.00
2018-12-14T14:19:05.312Z,17.70
2018-12-14T14:21:33.903Z,20.00
2018-12-14T14:24:02.745Z,19.93
2018-12-14T14:26:31.419Z,19.63
2018-12-14T14:29:00.011Z,20.47
2018-12-14T14:31:28.586Z,22.47
2018-12-14T14:33:57.209Z,14.37
2018-12-14T14:36:25.919Z,14.77
2018-12-14T14:38:54.529Z,21.97
2018-12-14T14:41:23.137Z,20.33
2018-12-14T14:43:51.722Z,27.10
2018-12-14T14:46:20.335Z,24.10
2018-12-14T14:48:49.023Z,26.30
2018-12-14T14:51:17.854Z,21.03
2018-12-14T14:53:46.513Z,27.60
2018-12-14T14:56:15.123Z,24.40
2018-12-14T14:58:43.746Z,23.87
2018-12-14T15:01:12.365Z,24.63
2018-12-14T15:03:40.951Z,24.70
2018-12-14T15:06:09.598Z,24.13
2018-12-14T15:08:38.197Z,29.03
2018-12-14T15:11:06.787Z,24.10
2018-12-14T15:13:35.385Z,23.43
2018-12-14T15:16:04.143Z,29.67
2018-12-14T15:18:32.738Z,28.90
2018-12-14T15:21:01.427Z,29.70
2018-12-14T15:23:30.054Z,27.70
2018-12-14T15:25:58.794Z,25.23
2018-12-14T15:28:27.401Z,30.40
2018-12-14T15:30:56.063Z,28.30
2018-12-14T15:33:24.656Z,28.10
2018-12-14T15:35:53.247Z,28.93
2018-12-14T15:38:21.928Z,26.70
2018-12-14T15:40:50.525Z,27.67
2018-12-14T15:43:19.103Z,32.50
2018-12-14T15:45:47.877Z,25.63
2018-12-14T15:48:16.517Z,26.20
2018-12-14T15:50:45.154Z,27.70
2018-12-14T15:53:13.805Z,26.57
2018-12-14T15:55:42.459Z,24.83
2018-12-14T15:58:11.055Z,28.27
2018-12-14T16:00:39.821Z,23.20
2018-12-14T16:03:08.481Z,30.03
2018-12-14T16:05:37.129Z,26.30
2018-12-14T16:08:05.751Z,26.73
2018-12-14T16:10:34.331Z,28.13
2018-12-14T16:13:02.966Z,25.27
2018-12-14T16:15:31.596Z,24.20
2018-12-14T16:18:00.231Z,27.53
2018-12-14T16:20:28.984Z,29.37
2018-12-14T16:22:57.912Z,25.40
2018-12-14T16:25:26.613Z,25.30
2018-12-14T16:27:55.329Z,32.33
2018-12-14T16:30:24.075Z,27.27
2018-12-14T16:32:52.718Z,31.73
2018-12-14T16:35:21.346Z,31.83
2018-12-14T16:37:51.303Z,28.57
2018-12-14T16:40:19.990Z,24.37
2018-12-14T16:42:48.649Z,24.70
2018-12-14T16:45:17.294Z,26.00
2018-12-14T16:47:45.934Z,28.00
2018-12-14T16:50:14.554Z,27.53
2018-12-14T16:52:43.207Z,27.03
2018-12-14T16:55:11.830Z,33.10
2018-12-14T16:57:40.588Z,32.10
2018-12-14T17:00:10.507Z,25.67
2018-12-14T17:02:39.231Z,27.03
2018-12-14T17:05:08.050Z,30.17
2018-12-14T17:07:36.780Z,25.77
2018-12-14T17:10:06.117Z,25.47
2018-12-14T17:12:34.759Z,28.07
2018-12-14T17:15:03.547Z,28.37
2018-12-14T17:17:32.271Z,27.93
2018-12-14T17:20:01.025Z,25.73
2018-12-14T17:22:29.631Z,29.30
2018-12-14T17:24:58.303Z,28.23
2018-12-14T17:27:27.037Z,28.70
2018-12-14T17:29:55.663Z,24.37
2018-12-14T17:32:24.347Z,28.97
2018-12-14T17:34:53.076Z,30.70
2018-12-14T17:37:21.707Z,24.73
2018-12-14T17:39:50.326Z,26.80
2018-12-14T17:42:18.968Z,27.57
2018-12-14T17:44:47.772Z,26.30
2018-12-14T17:47:16.382Z,26.87
2018-12-14T17:49:45.002Z,28.60
2018-12-14T17:52:13.688Z,26.40
2018-12-14T17:54:42.284Z,26.17
2018-12-14T17:57:10.878Z,26.80
2018-12-14T17:59:39.495Z,23.60
2018-12-14T18:02:08.127Z,24.97
2018-12-14T18:04:36.864Z,21.10
2018-12-14T18:07:05.538Z,24.17
2018-12-14T18:09:34.305Z,24.20
2018-12-14T18:12:02.926Z,24.10
2018-12-14T18:14:31.520Z,27.10
2018-12-14T18:17:00.154Z,26.90
2018-12-14T18:19:28.775Z,25.03
2018-12-14T18:21:57.407Z,19.80
2018-12-14T18:24:26.005Z,25.77
2018-12-14T18:26:54.670Z,23.83
2018-12-14T18:29:23.283Z,21.67
2018-12-14T18:31:51.883Z,27.50
2018-12-14T18:34:20.643Z,24.60
2018-12-14T18:36:49.259Z,27.10
2018-12-14T18:39:17.905Z,31.90
2018-12-14T18:41:46.535Z,25.43
2018-12-14T18:44:15.170Z,23.80
2018-12-14T18:46:43.794Z,25.33
2018-12-14T18:49:12.434Z,25.07
2018-12-14T18:51:41.081Z,21.20
2018-12-14T18:54:09.707Z,23.43
2018-12-14T18:56:38.339Z,24.77
2018-12-14T18:59:07.097Z,24.43
2018-12-14T19:01:35.751Z,26.43
2018-12-14T19:04:04.362Z,25.80
2018-12-14T19:06:33.016Z,28.20
2018-12-14T19:09:01.624Z,27.13
2018-12-14T19:11:30.256Z,29.37
2018-12-14T19:13:58.920Z,28.20
2018-12-14T19:16:27.510Z,28.33
2018-12-14T19:18:56.181Z,28.30
2018-12-14T19:21:24.836Z,25.67
2018-12-14T19:23:53.439Z,28.47
2018-12-14T19:26:22.146Z,29.80
2018-12-14T19:28:50.823Z,31.33
2018-12-14T19:31:19.470Z,33.47
2018-12-14T19:33:48.139Z,28.77
2018-12-14T19:36:16.748Z,30.50
2018-12-14T19:38:45.346Z,31.10
2018-12-14T19:41:13.924Z,32.43
2018-12-14T19:43:42.530Z,32.80
2018-12-14T19:46:11.103Z,29.10
2018-12-14T19:48:39.761Z,31.83
2018-12-14T19:51:08.413Z,29.10
2018-12-14T19:53:37.056Z,30.43
2018-12-14T19:56:05.681Z,30.87
2018-12-14T19:58:34.320Z,27.80
2018-12-14T20:01:02.957Z,26.97
2018-12-14T20:03:31.585Z,29.60
2018-12-14T20:06:00.255Z,30.33
2018-12-14T20:08:28.925Z,29.83
2018-12-14T20:10:57.548Z,28.10
2018-12-14T20:13:26.142Z,32.90
2018-12-14T20:15:57.720Z,28.80
2018-12-14T20:18:25.413Z,28.40
2018-12-14T20:20:54.060Z,30.17
2018-12-14T20:23:22.665Z,30.80
2018-12-14T20:25:51.300Z,29.23
2018-12-14T20:28:19.893Z,33.27
2018-12-14T20:30:48.484Z,30.77
2018-12-14T20:33:17.030Z,35.33
2018-12-14T20:35:45.649Z,33.20
2018-12-14T20:38:14.283Z,28.90
2018-12-14T20:40:43.020Z,28.57
2018-12-14T20:43:11.617Z,33.30
2018-12-14T20:45:40.202Z,35.20
2018-12-14T20:48:08.841Z,34.00
2018-12-14T20:50:37.465Z,30.10
2018-12-14T20:53:06.041Z,33.60
2018-12-14T20:55:34.660Z,32.67
2018-12-14T20:58:03.284Z,37.43
2018-12-14T21:00:31.880Z,37.97
2018-12-14T21:03:00.460Z,33.53
2018-12-14T21:05:29.445Z,29.93
2018-12-14T21:07:58.090Z,30.27
2018-12-14T21:10:26.722Z,30.37
2018-12-14T21:12:55.344Z,31.97
2018-12-14T21:15:23.963Z,31.30
2018-12-14T21:17:52.562Z,30.83
2018-12-14T21:20:21.194Z,29.30
2018-12-14T21:22:49.866Z,31.10
2018-12-14T21:25:18.502Z,27.83
2018-12-14T21:27:47.129Z,30.50
2018-12-14T21:30:15.835Z,29.20
2018-12-14T21:32:44.460Z,31.47
2018-12-14T21:35:13.067Z,32.77
2018-12-14T21:37:41.826Z,30.83
2018-12-14T21:40:10.561Z,28.47
2018-12-14T21:42:39.169Z,30.10
2018-12-14T21:45:08.128Z,30.87
2018-12-14T21:47:36.726Z,33.53
2018-12-14T21:50:05.682Z,28.80
2018-12-14T21:52:34.289Z,29.47
2018-12-14T21:55:02.927Z,33.53
2018-12-14T21:57:31.731Z,31.67
2018-12-14T22:00:00.317Z,32.97
2018-12-14T22:02:28.960Z,30.00
2018-12-14T22:04:57.532Z,35.63
2018-12-14T22:07:26.257Z,30.80
2018-12-14T22:09:54.854Z,30.63
2018-12-14T22:12:23.423Z,32.27
2018-12-14T22:14:52.068Z,31.43
2018-12-14T22:17:20.663Z,29.77
2018-12-14T22:19:49.268Z,29.27
2018-12-14T22:22:17.898Z,33.80
2018-12-14T22:24:46.491Z,30.73
2018-12-14T22:27:15.270Z,33.90
2018-12-14T22:29:44.039Z,28.37
2018-12-14T22:32:13.115Z,32.53
2018-12-14T22:34:41.967Z,33.63
2018-12-14T22:37:10.768Z,35.13
2018-12-14T22:39:39.874Z,31.03
2018-12-14T22:42:08.693Z,31.80
2018-12-14T22:44:37.520Z,28.70
2018-12-14T22:47:06.286Z,34.30
2018-12-14T22:49:35.041Z,30.57
2018-12-14T22:52:03.839Z,32.73
2018-12-14T22:54:32.584Z,35.53
2018-12-14T22:57:01.435Z,35.07
2018-12-14T22:59:30.173Z,31.27
2018-12-14T23:01:59.357Z,29.83
2018-12-14T23:04:28.104Z,35.40
2018-12-14T23:06:56.903Z,35.10
2018-12-14T23:09:25.693Z,35.13
2018-12-14T23:11:54.463Z,32.87
2018-12-14T23:14:23.267Z,30.67
2018-12-14T23:16:52.373Z,32.77
2018-12-14T23:19:21.454Z,39.03
2018-12-14T23:21:50.233Z,29.53
2018-12-14T23:24:19.025Z,29.57
2018-12-14T23:26:47.631Z,32.00
2018-12-14T23:29:16.267Z,29.17
2018-12-14T23:31:44.864Z,29.73
2018-12-14T23:34:13.566Z,31.47
2018-12-14T23:36:42.158Z,36.33
2018-12-14T23:39:10.761Z,31.80
2018-12-14T23:41:39.331Z,35.20
2018-12-14T23:44:08.039Z,42.23
2018-12-14T23:46:36.619Z,39.33
2018-12-14T23:49:05.258Z,33.67
2018-12-14T23:51:33.915Z,34.40
2018-12-14T23:54:02.540Z,29.93
2018-12-14T23:56:31.120Z,33.60
2018-12-14T23:58:59.682Z,34.10
